createdAt,value
2018-03-26T00:00:25.945Z,79.90
2018-03-26T00:02:55.610Z,80.10
2018-03-26T00:05:25.535Z,80.10
2018-03-26T00:07:55.107Z,80.10
2018-03-26T00:10:24.480Z,80.00
2018-03-26T00:12:53.666Z,79.70
2018-03-26T00:15:23.342Z,79.50
2018-03-26T00:17:53.430Z,79.40
2018-03-26T00:20:22.468Z,79.50
2018-03-26T00:22:52.064Z,79.20
2018-03-26T00:25:22.375Z,79.20
2018-03-26T00:27:53.592Z,79.10
2018-03-26T00:30:23.812Z,79.20
2018-03-26T00:32:53.142Z,79.20
2018-03-26T00:35:23.240Z,79.10
2018-03-26T00:37:52.773Z,79.30
2018-03-26T00:40:22.716Z,79.40
2018-03-26T00:42:52.182Z,79.20
2018-03-26T00:45:21.166Z,79.30
2018-03-26T00:47:50.547Z,79.30
2018-03-26T00:50:19.456Z,79.10
2018-03-26T00:52:49.120Z,79.00
2018-03-26T00:55:18.299Z,78.70
2018-03-26T00:57:47.122Z,78.50
2018-03-26T01:00:15.731Z,78.10
2018-03-26T01:02:45.403Z,78.20
2018-03-26T01:05:14.586Z,77.90
2018-03-26T01:07:43.833Z,77.50
2018-03-26T01:10:12.254Z,77.80
2018-03-26T01:12:41.752Z,78.00
2018-03-26T01:15:10.615Z,77.90
2018-03-26T01:17:41.199Z,77.60
2018-03-26T01:20:10.010Z,77.60
2018-03-26T01:22:38.973Z,77.60
2018-03-26T01:25:07.649Z,77.60
2018-03-26T01:27:36.906Z,77.80
2018-03-26T01:30:06.660Z,78.20
2018-03-26T01:32:35.424Z,78.20
2018-03-26T01:35:04.986Z,78.60
2018-03-26T01:37:33.631Z,78.60
2018-03-26T01:40:02.331Z,78.90
2018-03-26T01:42:31.381Z,79.00
2018-03-26T01:45:00.060Z,79.00
2018-03-26T01:47:28.878Z,78.00
2018-03-26T01:49:58.877Z,79.10
2018-03-26T01:52:27.753Z,79.00
2018-03-26T01:54:56.225Z,78.60
2018-03-26T01:57:24.505Z,79.20
2018-03-26T01:59:52.806Z,79.20
2018-03-26T02:02:22.563Z,78.90
2018-03-26T02:04:50.921Z,78.90
2018-03-26T02:07:19.543Z,79.10
2018-03-26T02:09:48.225Z,79.50
2018-03-26T02:12:16.397Z,79.80
2018-03-26T02:14:44.845Z,80.20
2018-03-26T02:17:13.396Z,80.70
2018-03-26T02:19:42.520Z,81.40
2018-03-26T02:22:10.972Z,81.20
2018-03-26T02:24:40.428Z,81.70
2018-03-26T02:27:09.202Z,81.60
2018-03-26T02:29:37.876Z,81.60
2018-03-26T02:32:06.328Z,81.40
2018-03-26T02:34:34.743Z,81.10
2018-03-26T02:37:03.474Z,81.20
2018-03-26T02:39:31.550Z,81.00
2018-03-26T02:42:00.353Z,81.30
2018-03-26T02:44:29.590Z,80.10
2018-03-26T02:46:58.006Z,80.00
2018-03-26T02:49:26.853Z,79.70
2018-03-26T02:51:55.176Z,79.40
2018-03-26T02:54:24.312Z,79.70
2018-03-26T02:56:52.845Z,79.70
2018-03-26T02:59:21.168Z,80.10
2018-03-26T03:01:49.378Z,80.40
2018-03-26T03:04:45.100Z,80.70
2018-03-26T03:07:13.627Z,81.10
2018-03-26T03:09:42.886Z,82.00
2018-03-26T03:12:38.069Z,82.00
2018-03-26T03:15:06.507Z,81.70
2018-03-26T03:17:35.738Z,81.60
2018-03-26T03:20:04.420Z,81.60
2018-03-26T03:22:32.758Z,82.30
2018-03-26T03:25:01.242Z,82.40
2018-03-26T03:27:29.736Z,82.60
2018-03-26T03:29:58.911Z,82.70
2018-03-26T03:32:27.493Z,82.70
2018-03-26T03:34:55.632Z,82.60
2018-03-26T03:37:26.501Z,83.60
2018-03-26T03:39:55.764Z,82.20
2018-03-26T03:42:24.676Z,82.00
2018-03-26T03:44:53.205Z,82.00
2018-03-26T03:47:21.864Z,82.10
2018-03-26T03:49:50.281Z,82.40
2018-03-26T03:52:18.500Z,82.30
2018-03-26T03:54:46.783Z,82.20
2018-03-26T03:57:15.275Z,82.30
2018-03-26T03:59:44.375Z,82.50
2018-03-26T04:02:13.330Z,82.60
2018-03-26T04:04:44.219Z,82.50
2018-03-26T04:07:13.402Z,82.70
2018-03-26T04:09:41.926Z,82.60
2018-03-26T04:12:10.319Z,82.50
2018-03-26T04:14:38.746Z,82.50
2018-03-26T04:17:07.787Z,82.40
2018-03-26T04:19:36.067Z,82.40
2018-03-26T04:22:04.782Z,82.30
2018-03-26T04:24:33.369Z,82.40
2018-03-26T04:27:02.010Z,82.60
2018-03-26T04:29:30.595Z,82.30
2018-03-26T04:31:59.312Z,82.20
2018-03-26T04:34:27.600Z,82.10
2018-03-26T04:36:56.411Z,82.30
2018-03-26T04:39:24.964Z,82.20
2018-03-26T04:41:53.103Z,82.10
2018-03-26T04:44:21.399Z,81.90
2018-03-26T04:46:50.022Z,82.30
2018-03-26T04:49:20.305Z,82.20
2018-03-26T04:51:49.067Z,82.20
2018-03-26T04:54:17.739Z,82.30
2018-03-26T04:56:45.944Z,82.80
2018-03-26T04:59:14.494Z,82.80
2018-03-26T05:01:42.750Z,82.50
2018-03-26T05:04:11.072Z,82.10
2018-03-26T05:06:39.768Z,82.50
2018-03-26T05:09:08.646Z,82.60
2018-03-26T05:11:51.878Z,82.80
2018-03-26T05:14:20.339Z,82.60
2018-03-26T05:16:49.471Z,82.90
2018-03-26T05:19:17.683Z,83.20
2018-03-26T05:21:46.242Z,83.60
2018-03-26T05:24:15.242Z,84.10
2018-03-26T05:26:43.769Z,84.10
2018-03-26T05:29:11.940Z,84.60
2018-03-26T05:31:41.436Z,84.90
2018-03-26T05:34:10.441Z,84.90
2018-03-26T05:36:38.724Z,85.00
2018-03-26T05:39:07.325Z,84.10
2018-03-26T05:41:35.715Z,84.30
2018-03-26T05:44:04.156Z,84.30
2018-03-26T05:46:32.879Z,84.50
2018-03-26T05:49:01.863Z,84.80
2018-03-26T05:51:30.533Z,85.20
2018-03-26T05:53:59.169Z,84.90
2018-03-26T05:56:27.696Z,84.80
2018-03-26T05:58:56.508Z,84.70
2018-03-26T06:01:24.856Z,85.00
2018-03-26T06:03:53.495Z,84.70
2018-03-26T06:06:22.925Z,84.20
2018-03-26T06:08:51.753Z,84.20
2018-03-26T06:11:20.195Z,84.00
2018-03-26T06:13:48.670Z,84.40
2018-03-26T06:16:17.086Z,84.60
2018-03-26T06:18:45.519Z,85.10
2018-03-26T06:21:14.752Z,84.80
2018-03-26T06:23:43.633Z,84.30
2018-03-26T06:26:13.318Z,84.50
2018-03-26T06:28:42.412Z,84.60
2018-03-26T06:31:11.541Z,84.60
2018-03-26T06:33:40.713Z,84.00
2018-03-26T06:36:09.833Z,83.80
2018-03-26T06:38:39.211Z,84.40
2018-03-26T06:41:07.860Z,84.20
2018-03-26T06:43:36.909Z,83.90
2018-03-26T06:46:05.418Z,83.90
2018-03-26T06:48:34.374Z,84.10
2018-03-26T06:51:03.274Z,84.70
2018-03-26T06:53:32.802Z,85.00
2018-03-26T06:56:01.696Z,85.30
2018-03-26T06:58:30.799Z,85.90
2018-03-26T07:01:01.399Z,85.30
2018-03-26T07:03:30.319Z,85.20
2018-03-26T07:05:59.325Z,85.00
2018-03-26T07:08:29.140Z,84.70
2018-03-26T07:10:58.866Z,84.50
2018-03-26T07:13:28.048Z,84.40
2018-03-26T07:15:57.892Z,84.50
2018-03-26T07:18:26.656Z,84.80
2018-03-26T07:20:55.619Z,84.40
2018-03-26T07:23:24.626Z,84.10
2018-03-26T07:25:54.284Z,83.80
2018-03-26T07:28:24.031Z,83.50
2018-03-26T07:30:52.901Z,83.20
2018-03-26T07:33:21.664Z,84.00
2018-03-26T07:35:50.458Z,84.20
2018-03-26T07:38:20.237Z,83.50
2018-03-26T07:40:49.748Z,83.40
2018-03-26T07:43:19.413Z,83.70
2018-03-26T07:45:50.855Z,83.40
2018-03-26T07:48:20.747Z,83.30
2018-03-26T07:50:50.042Z,83.90
2018-03-26T07:53:19.280Z,84.30
2018-03-26T07:55:50.330Z,85.20
2018-03-26T07:58:20.598Z,85.00
2018-03-26T08:00:50.311Z,85.00
2018-03-26T08:03:19.664Z,85.10
2018-03-26T08:05:49.715Z,85.60
2018-03-26T08:08:19.272Z,85.60
2018-03-26T08:10:48.666Z,85.10
2018-03-26T08:13:18.596Z,85.10
2018-03-26T08:15:48.553Z,85.10
2018-03-26T08:18:17.885Z,85.00
2018-03-26T08:20:47.166Z,84.90
2018-03-26T08:23:16.520Z,84.50
2018-03-26T08:25:46.573Z,84.30
2018-03-26T08:28:17.108Z,84.20
2018-03-26T08:30:46.536Z,84.40
2018-03-26T08:33:15.763Z,85.10
2018-03-26T08:35:45.713Z,84.40
2018-03-26T08:38:14.971Z,84.40
2018-03-26T08:40:44.159Z,84.30
2018-03-26T08:43:13.422Z,84.40
2018-03-26T08:45:42.585Z,84.10
2018-03-26T08:48:13.242Z,84.10
2018-03-26T08:50:42.170Z,84.60
2018-03-26T08:53:11.558Z,85.70
2018-03-26T08:55:40.844Z,85.20
2018-03-26T08:58:10.318Z,84.70
2018-03-26T09:00:40.013Z,84.10
2018-03-26T09:03:09.965Z,84.30
2018-03-26T09:05:39.774Z,84.30
2018-03-26T09:08:08.959Z,84.30
2018-03-26T09:10:38.225Z,84.00
2018-03-26T09:13:08.280Z,83.80
2018-03-26T09:15:37.704Z,83.80
2018-03-26T09:18:07.403Z,84.20
2018-03-26T09:20:40.928Z,84.00
2018-03-26T09:23:09.926Z,83.90
2018-03-26T09:25:39.009Z,84.10
2018-03-26T09:28:08.936Z,83.80
2018-03-26T09:30:38.818Z,83.70
2018-03-26T09:33:08.116Z,83.30
2018-03-26T09:35:38.161Z,83.30
2018-03-26T09:38:08.550Z,82.90
2018-03-26T09:40:37.751Z,82.70
2018-03-26T09:43:07.081Z,82.60
2018-03-26T09:45:36.361Z,83.00
2018-03-26T09:48:05.734Z,82.90
2018-03-26T09:50:34.702Z,82.60
2018-03-26T09:53:04.894Z,83.40
2018-03-26T09:55:34.236Z,83.60
2018-03-26T09:58:04.046Z,83.90
2018-03-26T10:00:37.521Z,83.90
2018-03-26T10:03:07.313Z,85.30
2018-03-26T10:05:36.192Z,85.30
2018-03-26T10:08:05.107Z,84.70
2018-03-26T10:10:34.281Z,84.10
2018-03-26T10:13:03.241Z,84.40
2018-03-26T10:15:32.164Z,84.90
2018-03-26T10:18:01.089Z,85.50
2018-03-26T10:20:30.950Z,85.90
2018-03-26T10:23:00.034Z,85.20
2018-03-26T10:25:30.148Z,85.90
2018-03-26T10:27:59.419Z,87.00
2018-03-26T10:30:29.138Z,87.80
2018-03-26T10:32:59.012Z,86.30
2018-03-26T10:35:28.214Z,86.30
2018-03-26T10:37:57.128Z,87.40
2018-03-26T10:40:27.121Z,86.30
2018-03-26T10:42:56.134Z,86.30
2018-03-26T10:45:25.770Z,86.40
2018-03-26T10:47:54.840Z,86.30
2018-03-26T10:50:24.459Z,86.60
2018-03-26T10:52:54.347Z,87.60
2018-03-26T10:55:25.734Z,87.90
2018-03-26T10:57:54.791Z,87.90
2018-03-26T11:00:24.519Z,87.40
2018-03-26T11:02:54.547Z,87.60
2018-03-26T11:05:24.803Z,88.10
2018-03-26T11:07:54.452Z,88.10
2018-03-26T11:10:24.189Z,87.90
2018-03-26T11:12:53.213Z,87.90
2018-03-26T11:15:22.488Z,87.80
2018-03-26T11:17:51.468Z,88.20
2018-03-26T11:20:20.540Z,87.90
2018-03-26T11:22:49.458Z,87.90
2018-03-26T11:25:19.376Z,86.50
2018-03-26T11:27:48.567Z,86.50
2018-03-26T11:30:18.438Z,86.20
2018-03-26T11:32:47.347Z,86.20
2018-03-26T11:35:16.376Z,86.90
2018-03-26T11:37:45.730Z,86.90
2018-03-26T11:40:14.692Z,86.80
2018-03-26T11:42:43.689Z,87.20
2018-03-26T11:45:12.599Z,86.40
2018-03-26T11:47:42.246Z,86.40
2018-03-26T11:50:11.319Z,86.00
2018-03-26T11:52:41.044Z,85.50
2018-03-26T11:55:11.063Z,85.40
2018-03-26T11:57:40.859Z,84.60
2018-03-26T12:00:10.704Z,83.20
2018-03-26T12:02:39.887Z,83.20
2018-03-26T12:05:09.887Z,83.10
2018-03-26T12:07:40.259Z,84.10
2018-03-26T12:10:09.695Z,84.10
2018-03-26T12:12:38.686Z,81.30
2018-03-26T12:15:07.977Z,81.50
2018-03-26T12:17:37.534Z,81.80
2018-03-26T12:20:15.693Z,82.40
2018-03-26T12:22:45.270Z,82.60
2018-03-26T12:25:14.745Z,83.20
2018-03-26T12:27:54.434Z,82.90
2018-03-26T12:30:25.398Z,82.80
2018-03-26T12:32:55.241Z,81.30
2018-03-26T12:35:55.932Z,79.60
2018-03-26T12:38:25.551Z,79.50
2018-03-26T12:40:55.029Z,79.30
2018-03-26T12:43:24.039Z,78.50
2018-03-26T12:47:02.619Z,79.80
2018-03-26T12:49:31.547Z,79.40
2018-03-26T12:52:11.017Z,79.80
2018-03-26T12:54:40.787Z,78.30
2018-03-26T12:57:18.407Z,78.30
2018-03-26T12:59:47.839Z,79.20
2018-03-26T13:02:28.006Z,78.20
2018-03-26T13:04:56.966Z,78.20
2018-03-26T13:07:26.860Z,77.60
2018-03-26T13:09:55.972Z,77.50
2018-03-26T13:12:25.863Z,76.00
2018-03-26T13:14:55.603Z,76.50
2018-03-26T13:17:25.567Z,76.40
2018-03-26T13:19:54.943Z,76.40
2018-03-26T13:22:24.112Z,75.90
2018-03-26T13:24:54.047Z,75.90
2018-03-26T13:27:22.996Z,75.90
2018-03-26T13:29:52.299Z,76.60
2018-03-26T13:32:21.410Z,76.40
2018-03-26T13:34:50.405Z,75.60
2018-03-26T13:37:20.423Z,77.50
2018-03-26T13:39:50.157Z,76.70
2018-03-26T13:42:19.840Z,76.70
2018-03-26T13:44:49.566Z,76.70
2018-03-26T13:47:18.830Z,76.70
2018-03-26T13:49:47.806Z,77.40
2018-03-26T13:52:17.022Z,77.60
2018-03-26T13:54:46.940Z,78.40
2018-03-26T13:57:16.939Z,78.00
2018-03-26T13:59:46.162Z,77.10
2018-03-26T14:02:15.249Z,77.00
2018-03-26T14:04:44.294Z,77.10
2018-03-26T14:07:13.482Z,76.90
2018-03-26T14:11:56.077Z,77.20
2018-03-26T14:17:35.657Z,76.40
2018-03-26T14:20:04.770Z,76.40
2018-03-26T14:22:33.718Z,78.00
2018-03-26T14:25:04.607Z,76.30
2018-03-26T14:27:36.376Z,76.20
2018-03-26T14:30:05.798Z,75.80
2018-03-26T14:32:34.889Z,76.20
2018-03-26T14:35:23.178Z,77.20
2018-03-26T14:37:52.854Z,74.10
2018-03-26T14:40:22.215Z,74.00
2018-03-26T14:42:51.952Z,73.90
2018-03-26T14:45:21.588Z,73.70
2018-03-26T14:47:51.954Z,72.50
2018-03-26T14:50:21.698Z,72.50
2018-03-26T14:52:51.047Z,72.40
2018-03-26T14:55:20.554Z,72.10
2018-03-26T14:57:50.361Z,71.60
2018-03-26T15:00:20.093Z,72.30
2018-03-26T15:02:49.485Z,71.50
2018-03-26T15:05:19.342Z,71.90
2018-03-26T15:07:48.802Z,72.20
2018-03-26T15:10:32.631Z,71.90
2018-03-26T15:13:01.747Z,73.20
2018-03-26T15:15:31.545Z,72.70
2018-03-26T15:18:00.609Z,71.70
2018-03-26T15:20:30.492Z,72.90
2018-03-26T15:22:59.468Z,72.90
2018-03-26T15:25:29.056Z,73.20
2018-03-26T15:27:58.617Z,73.40
2018-03-26T15:30:28.150Z,73.20
2018-03-26T15:32:57.145Z,73.60
2018-03-26T15:35:27.706Z,74.10
2018-03-26T15:37:56.663Z,74.00
2018-03-26T15:40:25.659Z,73.80
2018-03-26T15:42:54.602Z,73.40
2018-03-26T15:45:24.242Z,73.80
2018-03-26T15:47:55.198Z,74.00
2018-03-26T15:50:25.665Z,74.20
2018-03-26T15:52:54.779Z,74.20
2018-03-26T15:55:23.903Z,75.90
2018-03-26T15:57:54.172Z,77.60
2018-03-26T16:00:24.056Z,77.60
2018-03-26T16:02:58.226Z,78.40
2018-03-26T16:05:29.137Z,78.70
2018-03-26T16:07:58.819Z,78.90
2018-03-26T16:10:27.904Z,78.90
2018-03-26T16:12:57.709Z,78.70
2018-03-26T16:15:27.580Z,78.50
2018-03-26T16:17:57.669Z,78.60
2018-03-26T16:20:27.718Z,79.30
2018-03-26T16:22:57.582Z,80.10
2018-03-26T16:25:26.791Z,80.60
2018-03-26T16:27:56.389Z,79.00
2018-03-26T16:30:26.021Z,74.30
2018-03-26T16:32:55.200Z,71.40
2018-03-26T16:35:26.399Z,73.90
2018-03-26T16:37:56.180Z,74.80
2018-03-26T16:40:26.524Z,72.10
2018-03-26T16:42:59.396Z,68.60
2018-03-26T16:45:28.734Z,69.80
2018-03-26T16:47:58.182Z,69.70
2018-03-26T16:50:27.718Z,70.20
2018-03-26T16:52:56.746Z,68.40
2018-03-26T16:55:25.776Z,68.90
2018-03-26T16:57:54.881Z,68.40
2018-03-26T17:00:24.044Z,68.60
2018-03-26T17:02:52.873Z,67.70
2018-03-26T17:05:21.732Z,68.20
2018-03-26T17:07:50.713Z,68.40
2018-03-26T17:10:19.824Z,68.30
2018-03-26T17:12:48.968Z,68.40
2018-03-26T17:15:18.001Z,79.80
2018-03-26T17:17:46.929Z,82.30
2018-03-26T17:20:17.484Z,83.90
2018-03-26T17:22:47.543Z,85.10
2018-03-26T17:25:16.699Z,85.10
2018-03-26T17:27:45.732Z,84.90
2018-03-26T17:30:15.014Z,84.70
2018-03-26T17:32:44.449Z,85.00
2018-03-26T17:35:15.468Z,86.00
2018-03-26T17:37:44.754Z,85.90
2018-03-26T17:40:13.752Z,86.40
2018-03-26T17:42:42.533Z,86.70
2018-03-26T17:45:11.483Z,87.00
2018-03-26T17:47:40.673Z,87.60
2018-03-26T17:50:09.569Z,87.60
2018-03-26T17:52:39.275Z,87.80
2018-03-26T17:55:08.671Z,88.40
2018-03-26T17:57:38.202Z,88.70
2018-03-26T18:00:07.220Z,88.60
2018-03-26T18:02:36.048Z,88.60
2018-03-26T18:05:05.227Z,88.30
2018-03-26T18:07:34.222Z,88.00
2018-03-26T18:10:03.232Z,88.00
2018-03-26T18:12:32.082Z,88.00
2018-03-26T18:15:01.036Z,88.00
2018-03-26T18:17:30.750Z,88.00
2018-03-26T18:19:59.692Z,88.10
2018-03-26T18:22:28.619Z,88.10
2018-03-26T18:24:57.580Z,88.30
2018-03-26T18:27:26.696Z,88.30
2018-03-26T18:29:55.584Z,88.60
2018-03-26T18:32:25.285Z,88.60
2018-03-26T18:34:54.339Z,88.50
2018-03-26T18:37:23.307Z,88.80
2018-03-26T18:39:55.091Z,87.90
2018-03-26T18:42:25.234Z,87.70
2018-03-26T18:44:55.326Z,87.70
2018-03-26T18:47:24.182Z,87.60
2018-03-26T18:49:53.037Z,87.90
2018-03-26T18:52:22.235Z,88.00
2018-03-26T18:54:51.187Z,88.40
2018-03-26T18:57:21.084Z,87.60
2018-03-26T18:59:49.856Z,87.60
2018-03-26T19:02:18.767Z,86.70
2018-03-26T19:04:48.435Z,86.70
2018-03-26T19:07:17.131Z,86.70
2018-03-26T19:09:45.943Z,86.50
2018-03-26T19:12:14.982Z,86.30
2018-03-26T19:14:43.835Z,86.00
2018-03-26T19:17:13.928Z,85.40
2018-03-26T19:19:44.436Z,85.40
2018-03-26T19:22:14.136Z,85.60
2018-03-26T19:24:43.044Z,85.50
2018-03-26T19:27:12.024Z,85.50
2018-03-26T19:29:40.976Z,85.60
2018-03-26T19:32:10.603Z,85.90
2018-03-26T19:34:39.447Z,85.80
2018-03-26T19:37:08.538Z,86.00
2018-03-26T19:39:37.395Z,86.20
2018-03-26T19:42:06.134Z,86.10
2018-03-26T19:44:36.414Z,85.90
2018-03-26T19:47:06.732Z,85.70
2018-03-26T19:49:35.663Z,85.80
2018-03-26T19:52:06.587Z,85.60
2018-03-26T19:54:35.774Z,85.60
2018-03-26T19:57:04.523Z,85.20
2018-03-26T19:59:33.245Z,85.30
2018-03-26T20:02:02.086Z,86.40
2018-03-26T20:04:31.155Z,86.90
2018-03-26T20:07:01.765Z,87.00
2018-03-26T20:09:30.506Z,87.00
2018-03-26T20:11:59.570Z,86.80
2018-03-26T20:14:29.280Z,87.10
2018-03-26T20:16:58.754Z,87.00
2018-03-26T20:19:28.116Z,87.00
2018-03-26T20:21:56.859Z,87.10
2018-03-26T20:24:26.320Z,82.70
2018-03-26T20:26:55.167Z,82.60
2018-03-26T20:29:25.296Z,79.80
2018-03-26T20:31:54.936Z,79.00
2018-03-26T20:34:23.769Z,78.90
2018-03-26T20:36:52.596Z,80.40
2018-03-26T20:39:21.427Z,80.80
2018-03-26T20:41:51.082Z,80.50
2018-03-26T20:44:21.254Z,81.50
2018-03-26T20:46:50.734Z,81.50
2018-03-26T20:49:19.562Z,81.80
2018-03-26T20:51:49.030Z,84.90
2018-03-26T20:54:17.737Z,88.50
2018-03-26T20:56:46.792Z,88.80
2018-03-26T20:59:15.957Z,89.50
2018-03-26T21:01:45.682Z,90.90
2018-03-26T21:04:14.995Z,90.80
2018-03-26T21:06:43.712Z,90.90
2018-03-26T21:09:12.401Z,90.90
2018-03-26T21:11:41.342Z,90.80
2018-03-26T21:14:10.834Z,90.80
2018-03-26T21:16:39.550Z,90.80
2018-03-26T21:19:08.379Z,90.80
2018-03-26T21:21:37.181Z,90.90
2018-03-26T21:24:06.164Z,90.90
2018-03-26T21:26:35.153Z,91.00
2018-03-26T21:29:04.304Z,91.00
2018-03-26T21:31:33.602Z,91.10
2018-03-26T21:34:03.208Z,91.20
2018-03-26T21:36:32.242Z,91.10
2018-03-26T21:39:01.710Z,91.20
2018-03-26T21:41:31.202Z,91.30
2018-03-26T21:44:00.201Z,91.50
2018-03-26T21:46:29.282Z,91.70
2018-03-26T21:48:58.146Z,91.70
2018-03-26T21:51:27.238Z,91.80
2018-03-26T21:53:56.149Z,92.10
2018-03-26T21:56:26.572Z,92.10
2018-03-26T21:58:56.050Z,92.10
2018-03-26T22:01:25.226Z,92.20
2018-03-26T22:03:54.532Z,92.20
2018-03-26T22:06:24.554Z,92.50
2018-03-26T22:08:53.311Z,92.60
2018-03-26T22:11:22.547Z,92.70
2018-03-26T22:13:51.695Z,92.60
2018-03-26T22:16:21.083Z,92.70
2018-03-26T22:18:50.670Z,92.80
2018-03-26T22:21:19.851Z,92.90
2018-03-26T22:23:49.200Z,93.00
2018-03-26T22:26:18.680Z,93.00
2018-03-26T22:28:47.863Z,93.10
2018-03-26T22:31:17.535Z,93.10
2018-03-26T22:33:46.571Z,93.00
2018-03-26T22:36:15.992Z,93.20
2018-03-26T22:38:44.984Z,93.30
2018-03-26T22:41:15.141Z,93.60
2018-03-26T22:43:44.322Z,93.60
2018-03-26T22:46:13.463Z,93.60
2018-03-26T22:48:42.369Z,92.90
2018-03-26T22:51:12.392Z,91.10
2018-03-26T22:53:42.115Z,90.80
2018-03-26T22:56:11.667Z,90.40
2018-03-26T22:58:40.835Z,90.40
2018-03-26T23:01:10.372Z,90.10
2018-03-26T23:03:39.848Z,90.30
2018-03-26T23:06:08.771Z,90.40
2018-03-26T23:08:38.491Z,91.80
2018-03-26T23:11:07.939Z,93.00
2018-03-26T23:13:37.200Z,93.20
2018-03-26T23:16:06.587Z,93.30
2018-03-26T23:18:35.600Z,93.30
2018-03-26T23:21:04.915Z,93.30
2018-03-26T23:23:34.557Z,92.50
2018-03-26T23:26:03.849Z,92.50
2018-03-26T23:28:33.230Z,92.30
2018-03-26T23:31:02.690Z,92.30
2018-03-26T23:33:32.069Z,92.60
2018-03-26T23:36:01.279Z,92.60
2018-03-26T23:38:30.437Z,92.70
2018-03-26T23:41:00.478Z,92.70
2018-03-26T23:43:29.807Z,93.00
2018-03-26T23:45:59.072Z,93.00
2018-03-26T23:48:28.484Z,93.10
2018-03-26T23:50:57.623Z,93.20
2018-03-26T23:53:27.097Z,93.20
2018-03-26T23:55:56.342Z,93.10
2018-03-26T23:58:25.588Z,93.10
